createdAt,value
2022-09-09T00:03:01.445Z,75.16
2022-09-09T00:06:10.910Z,74.69
2022-09-09T00:09:17.624Z,75.58
2022-09-09T00:12:28.657Z,74.79
2022-09-09T00:15:38.310Z,75.23
2022-09-09T00:18:54.059Z,74.77
2022-09-09T00:22:08.861Z,74.04
2022-09-09T00:25:17.894Z,74.20
2022-09-09T00:28:22.686Z,74.22
2022-09-09T00:31:29.980Z,74.50
2022-09-09T00:34:35.149Z,74.25
2022-09-09T00:37:37.995Z,73.79
2022-09-09T00:40:47.413Z,73.69
2022-09-09T00:43:59.542Z,73.58
2022-09-09T00:47:14.043Z,73.46
2022-09-09T00:50:35.217Z,73.60
2022-09-09T00:53:43.529Z,73.50
2022-09-09T00:56:55.890Z,73.51
2022-09-09T01:00:06.539Z,73.56
2022-09-09T01:03:23.183Z,72.77
2022-09-09T01:06:33.488Z,73.49
2022-09-09T01:09:46.193Z,73.19
2022-09-09T01:12:49.657Z,72.94
2022-09-09T01:15:56.342Z,73.57
2022-09-09T01:19:03.400Z,73.43
2022-09-09T01:22:17.057Z,72.54
2022-09-09T01:25:31.161Z,73.40
2022-09-09T01:28:37.832Z,73.27
2022-09-09T01:31:46.329Z,73.65
2022-09-09T01:34:49.319Z,72.91
2022-09-09T01:37:52.867Z,73.31
2022-09-09T01:40:56.357Z,72.99
2022-09-09T01:44:00.401Z,73.54
2022-09-09T01:47:03.154Z,73.25
2022-09-09T01:50:06.559Z,73.64
2022-09-09T01:53:09.788Z,74.70
2022-09-09T01:56:24.336Z,74.93
2022-09-09T01:59:43.040Z,74.43
2022-09-09T02:02:54.530Z,74.96
2022-09-09T02:06:07.603Z,73.96
2022-09-09T02:09:13.159Z,74.68
2022-09-09T02:12:20.624Z,75.13
2022-09-09T02:15:28.119Z,74.68
2022-09-09T02:18:37.511Z,74.51
2022-09-09T02:21:41.889Z,74.20
2022-09-09T02:24:45.763Z,74.02
2022-09-09T02:27:51.861Z,74.64
2022-09-09T02:30:56.913Z,74.38
2022-09-09T02:34:04.237Z,74.00
2022-09-09T02:37:09.633Z,73.77
2022-09-09T02:40:15.354Z,73.53
2022-09-09T02:43:18.356Z,73.97
2022-09-09T02:46:38.576Z,73.33
2022-09-09T02:49:51.366Z,73.19
2022-09-09T02:53:05.107Z,72.08
2022-09-09T02:56:12.552Z,74.10
2022-09-09T02:59:15.546Z,74.43
2022-09-09T03:02:19.842Z,73.66
2022-09-09T03:05:23.546Z,74.26
2022-09-09T03:08:26.111Z,74.51
2022-09-09T03:11:29.398Z,74.53
2022-09-09T03:14:32.203Z,73.07
2022-09-09T03:17:36.585Z,73.81
2022-09-09T03:20:39.117Z,73.99
2022-09-09T03:23:41.993Z,74.05
2022-09-09T03:26:45.645Z,73.45
2022-09-09T03:29:51.522Z,73.87
2022-09-09T03:32:56.083Z,73.12
2022-09-09T03:35:59.527Z,72.73
2022-09-09T03:39:03.854Z,73.55
2022-09-09T03:42:06.969Z,73.18
2022-09-09T03:45:11.751Z,72.55
2022-09-09T03:48:16.100Z,72.75
2022-09-09T03:51:18.939Z,72.48
2022-09-09T03:54:21.510Z,72.65
2022-09-09T03:57:24.242Z,72.42
2022-09-09T04:00:27.843Z,71.81
2022-09-09T04:03:32.649Z,72.88
2022-09-09T04:06:35.247Z,72.39
2022-09-09T04:09:37.807Z,72.35
2022-09-09T04:12:47.665Z,71.89
2022-09-09T04:15:54.157Z,71.93
2022-09-09T04:18:59.133Z,72.57
2022-09-09T04:22:01.887Z,71.78
2022-09-09T04:25:05.012Z,71.41
2022-09-09T04:28:07.577Z,71.69
2022-09-09T04:31:12.645Z,71.33
2022-09-09T04:34:16.619Z,71.92
2022-09-09T04:37:21.434Z,72.00
2022-09-09T04:40:24.178Z,71.85
2022-09-09T04:43:34.360Z,71.66
2022-09-09T04:46:37.216Z,71.89
2022-09-09T04:49:42.174Z,71.36
2022-09-09T04:52:44.735Z,72.08
2022-09-09T04:55:47.461Z,72.43
2022-09-09T04:58:50.145Z,72.26
2022-09-09T05:01:53.053Z,72.68
2022-09-09T05:04:57.090Z,72.28
2022-09-09T05:08:03.686Z,71.10
2022-09-09T05:11:06.648Z,71.89
2022-09-09T05:14:09.377Z,71.90
2022-09-09T05:17:11.988Z,72.17
2022-09-09T05:20:17.544Z,72.50
2022-09-09T05:23:20.300Z,72.86
2022-09-09T05:26:25.146Z,72.83
2022-09-09T05:29:28.339Z,73.27
2022-09-09T05:32:35.297Z,73.41
2022-09-09T05:35:39.227Z,73.17
2022-09-09T05:38:43.116Z,73.89
2022-09-09T05:41:45.776Z,74.42
2022-09-09T05:44:49.214Z,74.87
2022-09-09T05:47:54.925Z,75.04
2022-09-09T05:50:59.172Z,74.83
2022-09-09T05:54:01.786Z,74.77
2022-09-09T05:57:04.975Z,75.29
2022-09-09T06:00:08.932Z,75.99
2022-09-09T06:03:13.142Z,76.80
2022-09-09T06:06:19.164Z,76.85
2022-09-09T06:09:22.062Z,76.79
2022-09-09T06:12:24.747Z,76.62
2022-09-09T06:15:28.175Z,78.24
2022-09-09T06:18:30.724Z,79.23
2022-09-09T06:21:38.043Z,76.84
2022-09-09T06:24:40.728Z,72.94
2022-09-09T06:27:43.628Z,71.27
2022-09-09T06:30:46.470Z,70.49
2022-09-09T06:33:50.623Z,64.61
2022-09-09T06:36:54.513Z,67.59
2022-09-09T06:39:59.452Z,65.09
2022-09-09T06:43:02.820Z,63.74
2022-09-09T06:46:09.209Z,64.22
2022-09-09T06:49:11.891Z,63.52
2022-09-09T06:52:15.889Z,64.94
2022-09-09T06:55:18.627Z,66.55
2022-09-09T06:58:21.383Z,66.67
2022-09-09T07:01:25.598Z,67.14
2022-09-09T07:04:28.487Z,66.97
2022-09-09T07:07:32.494Z,67.97
2022-09-09T07:10:35.882Z,64.67
2022-09-09T07:13:38.658Z,63.80
2022-09-09T07:16:41.793Z,63.58
2022-09-09T07:19:44.365Z,63.00
2022-09-09T07:22:48.387Z,64.28
2022-09-09T07:25:51.355Z,60.80
2022-09-09T07:28:54.847Z,61.75
2022-09-09T07:31:57.791Z,60.55
2022-09-09T07:35:01.294Z,62.63
2022-09-09T07:38:07.629Z,62.81
2022-09-09T07:41:13.586Z,62.74
2022-09-09T07:44:18.375Z,62.40
2022-09-09T07:47:21.231Z,63.98
2022-09-09T07:50:24.544Z,63.37
2022-09-09T07:53:31.684Z,63.10
2022-09-09T07:56:35.285Z,63.62
2022-09-09T07:59:38.018Z,63.28
2022-09-09T08:02:40.682Z,61.47
2022-09-09T08:05:44.223Z,62.69
2022-09-09T08:08:52.281Z,61.71
2022-09-09T08:11:55.128Z,60.43
2022-09-09T08:14:57.725Z,58.50
2022-09-09T08:18:00.993Z,58.41
2022-09-09T08:21:12.769Z,56.30
2022-09-09T08:24:17.002Z,55.98
2022-09-09T08:27:19.927Z,54.21
2022-09-09T08:30:22.658Z,53.26
2022-09-09T08:33:26.089Z,54.30
2022-09-09T08:36:30.826Z,54.94
2022-09-09T08:39:34.983Z,52.41
2022-09-09T08:42:45.224Z,53.52
2022-09-09T08:45:54.726Z,54.05
2022-09-09T08:49:02.207Z,53.40
2022-09-09T08:52:11.466Z,54.07
2022-09-09T08:55:29.382Z,55.69
2022-09-09T08:58:34.407Z,55.88
2022-09-09T09:01:53.035Z,56.09
2022-09-09T09:05:08.889Z,56.68
2022-09-09T09:08:26.676Z,56.70
2022-09-09T09:11:37.205Z,56.84
2022-09-09T09:14:42.187Z,56.11
2022-09-09T09:17:45.665Z,57.62
2022-09-09T09:20:59.744Z,56.94
2022-09-09T09:24:03.572Z,56.20
2022-09-09T09:27:15.790Z,57.38
2022-09-09T09:30:28.534Z,56.44
2022-09-09T09:33:41.499Z,55.11
2022-09-09T09:36:48.225Z,52.29
2022-09-09T09:40:06.530Z,49.64
2022-09-09T09:43:22.249Z,50.78
2022-09-09T09:46:28.277Z,51.31
2022-09-09T09:49:31.071Z,48.71
2022-09-09T09:52:35.887Z,49.92
2022-09-09T09:55:49.188Z,49.36
2022-09-09T09:58:54.444Z,48.00
2022-09-09T10:02:09.294Z,45.45
2022-09-09T10:05:16.981Z,45.19
2022-09-09T10:08:30.321Z,45.59
2022-09-09T10:11:44.578Z,47.04
2022-09-09T10:15:00.044Z,46.76
2022-09-09T10:18:15.958Z,48.95
2022-09-09T10:21:33.198Z,49.26
2022-09-09T10:25:20.686Z,46.63
2022-09-09T10:28:41.732Z,45.79
2022-09-09T10:31:57.775Z,46.24
2022-09-09T10:35:06.689Z,47.02
2022-09-09T10:38:18.634Z,46.36
2022-09-09T10:41:34.339Z,45.15
2022-09-09T10:44:57.944Z,44.20
2022-09-09T10:48:18.193Z,44.32
2022-09-09T10:51:30.416Z,44.41
2022-09-09T10:54:45.942Z,42.29
2022-09-09T10:57:50.769Z,43.00
2022-09-09T11:00:58.465Z,42.71
2022-09-09T11:04:08.079Z,42.49
2022-09-09T11:07:15.444Z,42.00
2022-09-09T11:10:26.302Z,41.70
2022-09-09T11:13:36.427Z,40.67
2022-09-09T11:16:44.380Z,40.54
2022-09-09T11:19:49.105Z,41.21
2022-09-09T11:22:57.413Z,41.98
2022-09-09T11:26:04.583Z,43.14
2022-09-09T11:29:28.060Z,39.23
2022-09-09T11:32:56.888Z,37.41
2022-09-09T11:36:15.834Z,37.30
2022-09-09T11:39:47.556Z,38.39
2022-09-09T11:42:51.585Z,40.93
2022-09-09T11:46:00.487Z,39.09
2022-09-09T11:49:07.044Z,39.30
2022-09-09T11:52:21.855Z,38.82
2022-09-09T11:55:28.082Z,39.17
2022-09-09T11:58:37.255Z,37.58
2022-09-09T12:01:43.765Z,37.37
2022-09-09T12:04:57.944Z,39.02
2022-09-09T12:08:04.493Z,38.83
2022-09-09T12:11:07.991Z,37.88
2022-09-09T12:14:22.194Z,38.20
2022-09-09T12:17:27.084Z,39.11
2022-09-09T12:20:59.085Z,38.92
2022-09-09T12:24:10.001Z,40.02
2022-09-09T12:27:21.041Z,39.34
2022-09-09T12:30:27.897Z,39.91
2022-09-09T12:33:37.265Z,39.78
2022-09-09T12:36:42.083Z,40.24
2022-09-09T12:39:49.384Z,39.34
2022-09-09T12:42:52.797Z,39.93
2022-09-09T12:45:59.885Z,38.99
2022-09-09T12:49:03.199Z,38.41
2022-09-09T12:52:10.470Z,39.89
2022-09-09T12:55:22.696Z,40.05
2022-09-09T12:58:26.187Z,40.63
2022-09-09T13:01:31.486Z,41.33
2022-09-09T13:04:34.125Z,42.60
2022-09-09T13:07:36.972Z,43.35
2022-09-09T13:10:56.340Z,43.51
2022-09-09T13:14:02.263Z,42.68
2022-09-09T13:17:06.805Z,43.29
2022-09-09T13:20:19.256Z,43.29
2022-09-09T13:23:23.261Z,43.37
2022-09-09T13:26:30.496Z,43.62
2022-09-09T13:29:34.328Z,44.90
2022-09-09T13:32:37.057Z,45.91
2022-09-09T13:35:48.741Z,44.60
2022-09-09T13:38:57.189Z,44.92
2022-09-09T13:42:01.216Z,45.24
2022-09-09T13:45:05.205Z,45.44
2022-09-09T13:48:12.948Z,45.52
2022-09-09T13:51:32.450Z,45.64
2022-09-09T13:54:35.161Z,45.91
2022-09-09T13:57:39.238Z,45.25
2022-09-09T14:00:41.847Z,46.73
2022-09-09T14:03:44.659Z,45.64
2022-09-09T14:06:48.491Z,46.56
2022-09-09T14:09:53.265Z,45.79
2022-09-09T14:12:57.170Z,45.89
2022-09-09T14:16:00.014Z,46.42
2022-09-09T14:19:02.630Z,46.65
2022-09-09T14:22:05.376Z,46.74
2022-09-09T14:25:09.244Z,45.19
2022-09-09T14:28:15.510Z,44.14
2022-09-09T14:31:18.740Z,44.81
2022-09-09T14:34:22.442Z,45.44
2022-09-09T14:37:25.043Z,44.04
2022-09-09T14:40:27.963Z,41.83
2022-09-09T14:43:33.485Z,42.29
2022-09-09T14:46:53.713Z,41.78
2022-09-09T14:49:56.878Z,42.46
2022-09-09T14:52:59.556Z,43.13
2022-09-09T14:56:06.986Z,42.80
2022-09-09T14:59:11.055Z,44.64
2022-09-09T15:02:15.161Z,44.30
2022-09-09T15:05:18.224Z,43.81
2022-09-09T15:08:20.804Z,42.79
2022-09-09T15:11:25.661Z,43.24
2022-09-09T15:14:29.572Z,43.51
2022-09-09T15:17:32.463Z,43.83
2022-09-09T15:20:40.069Z,45.02
2022-09-09T15:23:43.498Z,46.62
2022-09-09T15:26:46.074Z,46.96
2022-09-09T15:29:50.124Z,46.55
2022-09-09T15:32:53.943Z,46.44
2022-09-09T15:35:57.282Z,47.97
2022-09-09T15:39:00.566Z,49.05
2022-09-09T15:42:03.202Z,49.90
2022-09-09T15:45:09.677Z,50.57
2022-09-09T15:48:12.754Z,50.92
2022-09-09T15:51:40.105Z,51.63
2022-09-09T15:54:40.049Z,52.21
2022-09-09T15:57:42.607Z,53.08
2022-09-09T16:00:46.734Z,53.77
2022-09-09T16:03:51.115Z,53.51
2022-09-09T16:06:55.710Z,54.94
2022-09-09T16:09:58.316Z,56.18
2022-09-09T16:13:00.913Z,56.36
2022-09-09T16:16:06.389Z,56.61
2022-09-09T16:19:12.271Z,56.56
2022-09-09T16:22:16.230Z,56.62
2022-09-09T16:25:20.037Z,57.19
2022-09-09T16:28:23.219Z,57.52
2022-09-09T16:31:29.353Z,57.91
2022-09-09T16:34:32.355Z,58.90
2022-09-09T16:37:35.142Z,60.04
2022-09-09T16:40:38.226Z,60.20
2022-09-09T16:43:41.502Z,60.73
2022-09-09T16:46:46.339Z,60.97
2022-09-09T16:49:49.915Z,60.57
2022-09-09T16:52:53.342Z,60.49
2022-09-09T16:55:56.506Z,60.66
2022-09-09T16:59:01.103Z,60.79
2022-09-09T17:02:06.181Z,61.63
2022-09-09T17:05:10.135Z,61.53
2022-09-09T17:08:12.841Z,61.91
2022-09-09T17:11:16.537Z,62.45
2022-09-09T17:14:20.701Z,63.15
2022-09-09T17:17:31.987Z,63.65
2022-09-09T17:20:46.598Z,64.25
2022-09-09T17:23:50.705Z,64.16
2022-09-09T17:26:53.565Z,64.30
2022-09-09T17:29:56.123Z,64.31
2022-09-09T17:33:00.194Z,64.19
2022-09-09T17:36:07.726Z,64.47
2022-09-09T17:39:10.583Z,64.63
2022-09-09T17:42:13.194Z,64.91
2022-09-09T17:45:16.312Z,64.91
2022-09-09T17:48:20.378Z,65.20
2022-09-09T17:51:26.046Z,64.72
2022-09-09T17:54:28.804Z,65.51
2022-09-09T17:57:31.400Z,65.24
2022-09-09T18:00:33.957Z,65.66
2022-09-09T18:03:38.831Z,65.65
2022-09-09T18:06:49.298Z,65.83
2022-09-09T18:09:51.994Z,67.34
2022-09-09T18:12:54.716Z,67.99
2022-09-09T18:15:57.960Z,67.81
2022-09-09T18:19:03.511Z,67.82
2022-09-09T18:22:07.086Z,67.85
2022-09-09T18:25:09.656Z,68.20
2022-09-09T18:28:12.339Z,68.20
2022-09-09T18:31:17.638Z,68.70
2022-09-09T18:34:23.146Z,68.35
2022-09-09T18:37:26.043Z,67.63
2022-09-09T18:40:31.401Z,68.07
2022-09-09T18:43:34.197Z,67.99
2022-09-09T18:46:37.789Z,68.07
2022-09-09T18:49:41.893Z,68.33
2022-09-09T18:52:44.457Z,67.91
2022-09-09T18:55:47.165Z,67.82
2022-09-09T18:58:53.529Z,67.73
2022-09-09T19:01:56.890Z,67.33
2022-09-09T19:05:01.711Z,66.59
2022-09-09T19:08:04.298Z,63.24
2022-09-09T19:11:08.761Z,63.34
2022-09-09T19:14:14.424Z,63.03
2022-09-09T19:17:17.109Z,62.65
2022-09-09T19:20:23.729Z,62.80
2022-09-09T19:23:30.367Z,63.26
2022-09-09T19:26:35.191Z,62.80
2022-09-09T19:29:40.007Z,62.88
2022-09-09T19:32:53.200Z,62.89
2022-09-09T19:36:02.044Z,62.85
2022-09-09T19:39:05.992Z,62.84
2022-09-09T19:42:08.578Z,63.01
2022-09-09T19:45:11.346Z,62.55
2022-09-09T19:48:14.807Z,62.82
2022-09-09T19:51:20.894Z,62.25
2022-09-09T19:54:23.561Z,62.50
2022-09-09T19:57:30.232Z,62.09
2022-09-09T20:00:33.158Z,62.17
2022-09-09T20:03:37.314Z,62.45
2022-09-09T20:06:43.969Z,62.52
2022-09-09T20:09:46.633Z,62.33
2022-09-09T20:12:49.578Z,62.24
2022-09-09T20:15:58.637Z,61.27
2022-09-09T20:19:02.546Z,61.00
2022-09-09T20:22:07.064Z,60.86
2022-09-09T20:25:09.939Z,59.63
2022-09-09T20:28:12.464Z,59.62
2022-09-09T20:31:19.041Z,59.89
2022-09-09T20:34:23.008Z,59.71
2022-09-09T20:37:26.909Z,59.68
2022-09-09T20:40:33.286Z,59.31
2022-09-09T20:43:36.119Z,59.48
2022-09-09T20:46:40.971Z,58.94
2022-09-09T20:49:44.249Z,59.56
2022-09-09T20:52:48.237Z,59.48
2022-09-09T20:55:51.034Z,59.49
2022-09-09T20:58:53.733Z,59.34
2022-09-09T21:01:56.920Z,60.31
2022-09-09T21:05:01.403Z,60.38
2022-09-09T21:08:05.558Z,60.51
2022-09-09T21:11:08.478Z,60.73
2022-09-09T21:14:12.003Z,61.99
2022-09-09T21:17:14.692Z,61.94
2022-09-09T21:20:17.494Z,62.02
2022-09-09T21:23:21.889Z,62.27
2022-09-09T21:26:24.826Z,62.14
2022-09-09T21:29:27.531Z,62.85
2022-09-09T21:32:30.097Z,62.51
2022-09-09T21:35:36.606Z,62.44
2022-09-09T21:38:41.705Z,62.94
2022-09-09T21:41:44.468Z,62.90
2022-09-09T21:44:47.135Z,63.13
2022-09-09T21:47:51.158Z,63.26
2022-09-09T21:50:54.876Z,63.59
2022-09-09T21:53:58.963Z,63.57
2022-09-09T21:57:01.665Z,63.96
2022-09-09T22:00:08.765Z,64.08
2022-09-09T22:03:11.488Z,64.21
2022-09-09T22:06:16.659Z,64.92
2022-09-09T22:09:21.210Z,64.51
2022-09-09T22:12:24.111Z,64.96
2022-09-09T22:15:26.798Z,65.50
2022-09-09T22:18:30.042Z,65.67
2022-09-09T22:21:34.040Z,65.90
2022-09-09T22:24:38.500Z,65.81
2022-09-09T22:27:41.043Z,65.67
2022-09-09T22:30:43.871Z,65.98
2022-09-09T22:33:46.428Z,65.70
2022-09-09T22:36:50.041Z,66.48
2022-09-09T22:39:54.172Z,66.48
2022-09-09T22:42:56.944Z,67.20
2022-09-09T22:45:59.799Z,67.09
2022-09-09T22:49:03.254Z,67.17
2022-09-09T22:52:06.156Z,67.62
2022-09-09T22:55:10.804Z,68.01
2022-09-09T22:58:13.457Z,67.99
2022-09-09T23:01:18.141Z,68.08
2022-09-09T23:04:25.212Z,67.91
2022-09-09T23:07:27.865Z,68.18
2022-09-09T23:10:33.065Z,69.08
2022-09-09T23:13:37.184Z,68.90
2022-09-09T23:16:43.593Z,69.04
2022-09-09T23:19:47.648Z,69.45
2022-09-09T23:22:50.485Z,69.48
2022-09-09T23:25:54.548Z,69.92
2022-09-09T23:28:59.277Z,70.28
2022-09-09T23:32:02.826Z,70.10
2022-09-09T23:35:06.352Z,70.34
2022-09-09T23:38:10.368Z,70.31
2022-09-09T23:41:21.211Z,70.43
2022-09-09T23:44:24.038Z,70.95
2022-09-09T23:47:26.583Z,71.35
2022-09-09T23:50:29.255Z,70.86
2022-09-09T23:53:31.898Z,71.29
2022-09-09T23:56:38.144Z,71.76
2022-09-09T23:59:40.942Z,71.63
